sensor_id;sensor_type;location;lat;lon;timestamp;pressure;altitude;pressure_sealevel;temperature;humidity
72124;BME280;63818;37.134;-8.548;2023-05-23T00:02:50;100913.3;;;19.8;64.0
72124;BME280;63818;37.134;-8.548;2023-05-23T00:07:36;100914.9;;;19.8;63.8
72124;BME280;63818;37.134;-8.548;2023-05-23T00:12:22;100911.7;;;19.8;64.1
72124;BME280;63818;37.134;-8.548;2023-05-23T00:17:10;100914.9;;;19.8;64.6
72124;BME280;63818;37.134;-8.548;2023-05-23T00:21:56;100909.0;;;19.8;65.0
72124;BME280;63818;37.134;-8.548;2023-05-23T00:26:44;100908.2;;;19.8;64.9
72124;BME280;63818;37.134;-8.548;2023-05-23T00:31:30;100900.4;;;19.8;65.1
72124;BME280;63818;37.134;-8.548;2023-05-23T00:36:16;100889.4;;;19.8;65.0
72124;BME280;63818;37.134;-8.548;2023-05-23T00:41:02;100895.7;;;19.8;64.7
72124;BME280;63818;37.134;-8.548;2023-05-23T00:45:48;100892.1;;;19.7;65.1
72124;BME280;63818;37.134;-8.548;2023-05-23T00:50:34;100890.9;;;19.7;65.1
72124;BME280;63818;37.134;-8.548;2023-05-23T00:55:21;100880.8;;;19.7;65.4
72124;BME280;63818;37.134;-8.548;2023-05-23T01:00:08;100878.0;;;19.7;65.1
72124;BME280;63818;37.134;-8.548;2023-05-23T01:04:55;100873.4;;;19.7;65.3
72124;BME280;63818;37.134;-8.548;2023-05-23T01:09:41;100876.0;;;19.7;65.3
72124;BME280;63818;37.134;-8.548;2023-05-23T01:14:31;100876.4;;;19.6;65.2
72124;BME280;63818;37.134;-8.548;2023-05-23T01:19:46;100874.4;;;19.6;65.2
72124;BME280;63818;37.134;-8.548;2023-05-23T01:24:40;100879.5;;;19.6;65.6
72124;BME280;63818;37.134;-8.548;2023-05-23T01:29:34;100870.2;;;19.7;65.7
72124;BME280;63818;37.134;-8.548;2023-05-23T01:34:21;100867.8;;;19.6;66.1
72124;BME280;63818;37.134;-8.548;2023-05-23T01:39:07;100861.2;;;19.7;65.7
72124;BME280;63818;37.134;-8.548;2023-05-23T01:43:53;100857.7;;;19.6;65.8
72124;BME280;63818;37.134;-8.548;2023-05-23T01:48:39;100853.6;;;19.5;65.3
72124;BME280;63818;37.134;-8.548;2023-05-23T01:53:27;100852.9;;;19.6;66.2
72124;BME280;63818;37.134;-8.548;2023-05-23T01:58:13;100869.8;;;19.6;66.1
72124;BME280;63818;37.134;-8.548;2023-05-23T02:03:02;100867.8;;;19.6;66.8
72124;BME280;63818;37.134;-8.548;2023-05-23T02:07:49;100864.7;;;19.6;66.4
72124;BME280;63818;37.134;-8.548;2023-05-23T02:12:35;100865.0;;;19.6;66.8
72124;BME280;63818;37.134;-8.548;2023-05-23T02:17:21;100877.1;;;19.6;67.1
72124;BME280;63818;37.134;-8.548;2023-05-23T02:22:09;100877.9;;;19.6;67.1
72124;BME280;63818;37.134;-8.548;2023-05-23T02:26:55;100888.0;;;19.6;67.4
72124;BME280;63818;37.134;-8.548;2023-05-23T02:31:41;100875.6;;;19.6;67.8
72124;BME280;63818;37.134;-8.548;2023-05-23T02:36:27;100881.4;;;19.6;68.3
72124;BME280;63818;37.134;-8.548;2023-05-23T02:41:13;100881.4;;;19.6;68.6
72124;BME280;63818;37.134;-8.548;2023-05-23T02:46:00;100877.2;;;19.7;69.0
72124;BME280;63818;37.134;-8.548;2023-05-23T02:50:46;100877.2;;;19.7;68.8
72124;BME280;63818;37.134;-8.548;2023-05-23T02:55:32;100873.9;;;19.6;68.8
72124;BME280;63818;37.134;-8.548;2023-05-23T03:00:18;100877.3;;;19.5;69.1
72124;BME280;63818;37.134;-8.548;2023-05-23T03:05:05;100877.8;;;19.5;69.4
72124;BME280;63818;37.134;-8.548;2023-05-23T03:09:51;100874.5;;;19.5;69.6
72124;BME280;63818;37.134;-8.548;2023-05-23T03:14:38;100871.9;;;19.5;69.7
72124;BME280;63818;37.134;-8.548;2023-05-23T03:19:23;100880.9;;;19.5;70.0
72124;BME280;63818;37.134;-8.548;2023-05-23T03:24:10;100886.4;;;19.6;70.3
72124;BME280;63818;37.134;-8.548;2023-05-23T03:28:56;100887.1;;;19.6;70.4
72124;BME280;63818;37.134;-8.548;2023-05-23T03:33:42;100889.5;;;19.6;71.0
72124;BME280;63818;37.134;-8.548;2023-05-23T03:38:28;100895.0;;;19.6;71.2
72124;BME280;63818;37.134;-8.548;2023-05-23T03:43:14;100893.8;;;19.6;71.8
72124;BME280;63818;37.134;-8.548;2023-05-23T03:48:00;100896.9;;;19.6;71.9
72124;BME280;63818;37.134;-8.548;2023-05-23T03:52:46;100889.5;;;19.6;72.1
72124;BME280;63818;37.134;-8.548;2023-05-23T03:57:32;100879.7;;;19.5;72.0
72124;BME280;63818;37.134;-8.548;2023-05-23T04:02:18;100891.3;;;19.5;72.2
72124;BME280;63818;37.134;-8.548;2023-05-23T04:07:04;100888.2;;;19.5;72.0
72124;BME280;63818;37.134;-8.548;2023-05-23T04:11:50;100888.9;;;19.5;71.7
72124;BME280;63818;37.134;-8.548;2023-05-23T04:16:36;100870.9;;;19.4;71.8
72124;BME280;63818;37.134;-8.548;2023-05-23T04:21:22;100862.3;;;19.4;72.0
72124;BME280;63818;37.134;-8.548;2023-05-23T04:26:08;100862.8;;;19.4;72.0
72124;BME280;63818;37.134;-8.548;2023-05-23T04:30:54;100858.8;;;19.4;72.0
72124;BME280;63818;37.134;-8.548;2023-05-23T04:35:40;100855.3;;;19.4;72.2
72124;BME280;63818;37.134;-8.548;2023-05-23T04:40:26;100850.7;;;19.4;72.0
72124;BME280;63818;37.134;-8.548;2023-05-23T04:45:16;100856.9;;;19.4;72.1
72124;BME280;63818;37.134;-8.548;2023-05-23T04:50:02;100848.3;;;19.4;72.0
72124;BME280;63818;37.134;-8.548;2023-05-23T04:54:48;100840.5;;;19.4;72.1
72124;BME280;63818;37.134;-8.548;2023-05-23T04:59:34;100821.8;;;19.4;72.2
72124;BME280;63818;37.134;-8.548;2023-05-23T05:04:20;100827.2;;;19.4;72.1
72124;BME280;63818;37.134;-8.548;2023-05-23T05:09:06;100843.5;;;19.4;72.0
72124;BME280;63818;37.134;-8.548;2023-05-23T05:13:51;100837.3;;;19.3;72.5
72124;BME280;63818;37.134;-8.548;2023-05-23T05:18:38;100839.4;;;19.2;73.1
72124;BME280;63818;37.134;-8.548;2023-05-23T05:23:25;100842.8;;;19.2;73.2
72124;BME280;63818;37.134;-8.548;2023-05-23T05:28:11;100843.1;;;19.1;73.2
72124;BME280;63818;37.134;-8.548;2023-05-23T05:32:56;100843.5;;;19.1;73.2
72124;BME280;63818;37.134;-8.548;2023-05-23T05:37:43;100839.5;;;19.1;72.4
72124;BME280;63818;37.134;-8.548;2023-05-23T05:42:29;100840.0;;;19.1;72.4
72124;BME280;63818;37.134;-8.548;2023-05-23T05:47:14;100843.5;;;19.1;72.2
72124;BME280;63818;37.134;-8.548;2023-05-23T05:52:01;100846.2;;;19.1;71.6
72124;BME280;63818;37.134;-8.548;2023-05-23T05:56:49;100847.0;;;19.1;71.7
72124;BME280;63818;37.134;-8.548;2023-05-23T06:01:36;100838.1;;;19.1;71.5
72124;BME280;63818;37.134;-8.548;2023-05-23T06:06:22;100840.8;;;19.1;71.3
72124;BME280;63818;37.134;-8.548;2023-05-23T06:11:10;100854.8;;;19.1;71.4
72124;BME280;63818;37.134;-8.548;2023-05-23T06:15:57;100859.0;;;19.1;71.4
72124;BME280;63818;37.134;-8.548;2023-05-23T06:20:43;100853.6;;;19.1;71.6
72124;BME280;63818;37.134;-8.548;2023-05-23T06:25:29;100862.2;;;19.1;71.6
72124;BME280;63818;37.134;-8.548;2023-05-23T06:30:16;100849.4;;;19.1;71.5
72124;BME280;63818;37.134;-8.548;2023-05-23T06:35:02;100851.2;;;19.1;70.8
72124;BME280;63818;37.134;-8.548;2023-05-23T06:39:48;100855.7;;;19.0;70.9
72124;BME280;63818;37.134;-8.548;2023-05-23T06:44:36;100856.5;;;19.0;71.2
72124;BME280;63818;37.134;-8.548;2023-05-23T06:49:22;100867.1;;;19.0;71.4
72124;BME280;63818;37.134;-8.548;2023-05-23T06:54:09;100861.3;;;19.0;71.2
72124;BME280;63818;37.134;-8.548;2023-05-23T06:58:55;100863.2;;;19.0;71.7
72124;BME280;63818;37.134;-8.548;2023-05-23T07:03:43;100867.6;;;19.1;71.7
72124;BME280;63818;37.134;-8.548;2023-05-23T07:08:29;100874.6;;;19.1;72.0
72124;BME280;63818;37.134;-8.548;2023-05-23T07:13:18;100869.7;;;19.2;72.4
72124;BME280;63818;37.134;-8.548;2023-05-23T07:18:05;100867.3;;;19.1;72.2
72124;BME280;63818;37.134;-8.548;2023-05-23T07:22:51;100869.1;;;19.1;72.7
72124;BME280;63818;37.134;-8.548;2023-05-23T07:27:37;100857.6;;;19.2;73.1
72124;BME280;63818;37.134;-8.548;2023-05-23T07:32:23;100861.6;;;19.2;73.3
72124;BME280;63818;37.134;-8.548;2023-05-23T07:37:09;100869.4;;;19.2;73.5
72124;BME280;63818;37.134;-8.548;2023-05-23T07:41:55;100874.9;;;19.3;73.5
72124;BME280;63818;37.134;-8.548;2023-05-23T07:46:42;100871.5;;;19.3;73.3
72124;BME280;63818;37.134;-8.548;2023-05-23T07:51:29;100873.1;;;19.4;73.3
72124;BME280;63818;37.134;-8.548;2023-05-23T07:56:18;100871.2;;;19.4;73.1
72124;BME280;63818;37.134;-8.548;2023-05-23T08:01:04;100870.9;;;19.4;73.0
72124;BME280;63818;37.134;-8.548;2023-05-23T08:06:00;100872.5;;;19.5;73.3
72124;BME280;63818;37.134;-8.548;2023-05-23T08:10:47;100856.7;;;19.5;73.0
72124;BME280;63818;37.134;-8.548;2023-05-23T08:15:33;100853.5;;;19.5;72.4
72124;BME280;63818;37.134;-8.548;2023-05-23T08:20:20;100856.5;;;19.4;71.3
72124;BME280;63818;37.134;-8.548;2023-05-23T08:25:10;100858.2;;;19.5;71.0
72124;BME280;63818;37.134;-8.548;2023-05-23T08:29:56;100859.0;;;19.5;70.3
72124;BME280;63818;37.134;-8.548;2023-05-23T08:34:42;100857.1;;;19.5;69.7
72124;BME280;63818;37.134;-8.548;2023-05-23T08:39:31;100863.0;;;19.5;68.9
72124;BME280;63818;37.134;-8.548;2023-05-23T08:44:19;100861.9;;;19.6;68.5
72124;BME280;63818;37.134;-8.548;2023-05-23T08:49:06;100867.0;;;19.6;68.5
72124;BME280;63818;37.134;-8.548;2023-05-23T08:53:55;100868.7;;;19.7;68.3
72124;BME280;63818;37.134;-8.548;2023-05-23T08:58:42;100877.7;;;19.7;68.1
72124;BME280;63818;37.134;-8.548;2023-05-23T09:03:28;100873.4;;;19.7;67.4
72124;BME280;63818;37.134;-8.548;2023-05-23T09:08:16;100879.2;;;19.7;67.2
72124;BME280;63818;37.134;-8.548;2023-05-23T09:13:02;100871.1;;;19.8;67.0
72124;BME280;63818;37.134;-8.548;2023-05-23T09:17:48;100864.1;;;19.8;66.2
72124;BME280;63818;37.134;-8.548;2023-05-23T09:22:34;100859.8;;;19.8;66.1
72124;BME280;63818;37.134;-8.548;2023-05-23T09:27:23;100856.4;;;19.8;65.8
72124;BME280;63818;37.134;-8.548;2023-05-23T09:32:12;100846.7;;;19.8;65.7
72124;BME280;63818;37.134;-8.548;2023-05-23T09:36:58;100848.3;;;19.9;67.1
72124;BME280;63818;37.134;-8.548;2023-05-23T09:41:54;100842.1;;;19.9;67.1
72124;BME280;63818;37.134;-8.548;2023-05-23T09:46:40;100844.8;;;19.9;67.1
72124;BME280;63818;37.134;-8.548;2023-05-23T09:51:28;100848.0;;;19.9;67.5
72124;BME280;63818;37.134;-8.548;2023-05-23T09:56:15;100851.9;;;20.0;68.2
72124;BME280;63818;37.134;-8.548;2023-05-23T10:01:06;100848.5;;;20.0;69.0
72124;BME280;63818;37.134;-8.548;2023-05-23T10:05:58;100841.8;;;20.0;69.1
72124;BME280;63818;37.134;-8.548;2023-05-23T10:12:20;100846.5;;;20.0;69.6
72124;BME280;63818;37.134;-8.548;2023-05-23T10:17:12;100844.8;;;19.9;69.2
72124;BME280;63818;37.134;-8.548;2023-05-23T10:22:13;100844.0;;;19.8;69.4
72124;BME280;63818;37.134;-8.548;2023-05-23T10:27:00;100849.4;;;19.8;69.2
72124;BME280;63818;37.134;-8.548;2023-05-23T10:31:50;100848.6;;;19.8;69.3
72124;BME280;63818;37.134;-8.548;2023-05-23T10:36:44;100847.0;;;19.8;69.9
72124;BME280;63818;37.134;-8.548;2023-05-23T10:41:42;100842.3;;;19.8;70.6
72124;BME280;63818;37.134;-8.548;2023-05-23T10:46:50;100853.2;;;19.8;71.1
72124;BME280;63818;37.134;-8.548;2023-05-23T10:56:30;100852.1;;;19.8;72.5
72124;BME280;63818;37.134;-8.548;2023-05-23T11:01:16;100848.7;;;19.9;73.0
72124;BME280;63818;37.134;-8.548;2023-05-23T11:06:03;100844.8;;;19.9;73.4
72124;BME280;63818;37.134;-8.548;2023-05-23T11:11:00;100853.8;;;19.9;74.0
72124;BME280;63818;37.134;-8.548;2023-05-23T11:15:47;100846.1;;;19.9;74.4
72124;BME280;63818;37.134;-8.548;2023-05-23T11:25:40;100846.0;;;19.9;74.4
72124;BME280;63818;37.134;-8.548;2023-05-23T11:30:27;100840.2;;;20.0;74.6
72124;BME280;63818;37.134;-8.548;2023-05-23T11:35:16;100840.2;;;20.0;75.0
72124;BME280;63818;37.134;-8.548;2023-05-23T11:40:25;100844.6;;;20.0;74.6
72124;BME280;63818;37.134;-8.548;2023-05-23T11:45:17;100836.5;;;20.0;74.7
72124;BME280;63818;37.134;-8.548;2023-05-23T11:50:04;100840.0;;;20.0;73.9
72124;BME280;63818;37.134;-8.548;2023-05-23T11:54:50;100836.9;;;20.1;72.8
72124;BME280;63818;37.134;-8.548;2023-05-23T11:59:39;100828.0;;;20.1;72.2
72124;BME280;63818;37.134;-8.548;2023-05-23T12:04:26;100824.5;;;20.2;71.3
72124;BME280;63818;37.134;-8.548;2023-05-23T12:09:12;100827.7;;;20.2;71.7
72124;BME280;63818;37.134;-8.548;2023-05-23T12:13:59;100831.6;;;20.2;72.0
72124;BME280;63818;37.134;-8.548;2023-05-23T12:18:52;100827.0;;;20.2;72.1
72124;BME280;63818;37.134;-8.548;2023-05-23T12:23:40;100811.0;;;20.2;71.8
72124;BME280;63818;37.134;-8.548;2023-05-23T12:28:36;100806.3;;;20.2;71.3
72124;BME280;63818;37.134;-8.548;2023-05-23T12:33:31;100804.8;;;20.2;71.2
72124;BME280;63818;37.134;-8.548;2023-05-23T12:38:17;100802.5;;;20.2;71.9
72124;BME280;63818;37.134;-8.548;2023-05-23T12:43:10;100809.5;;;20.3;72.0
72124;BME280;63818;37.134;-8.548;2023-05-23T12:47:55;100800.2;;;20.3;72.7
72124;BME280;63818;37.134;-8.548;2023-05-23T12:52:41;100800.7;;;20.4;72.8
72124;BME280;63818;37.134;-8.548;2023-05-23T12:57:30;100789.9;;;20.4;72.8
72124;BME280;63818;37.134;-8.548;2023-05-23T13:02:16;100781.3;;;20.5;73.0
72124;BME280;63818;37.134;-8.548;2023-05-23T13:07:02;100772.4;;;20.5;72.8
72124;BME280;63818;37.134;-8.548;2023-05-23T13:11:48;100762.2;;;20.5;72.2
72124;BME280;63818;37.134;-8.548;2023-05-23T13:16:34;100756.5;;;20.6;71.5
72124;BME280;63818;37.134;-8.548;2023-05-23T13:21:20;100747.2;;;20.6;70.9
72124;BME280;63818;37.134;-8.548;2023-05-23T13:26:06;100760.8;;;20.6;69.9
72124;BME280;63818;37.134;-8.548;2023-05-23T13:30:55;100749.2;;;20.7;69.0
72124;BME280;63818;37.134;-8.548;2023-05-23T13:35:45;100739.9;;;20.7;68.1
72124;BME280;63818;37.134;-8.548;2023-05-23T13:40:32;100740.7;;;20.8;67.8
72124;BME280;63818;37.134;-8.548;2023-05-23T13:45:23;100741.5;;;20.8;67.3
72124;BME280;63818;37.134;-8.548;2023-05-23T13:50:10;100736.4;;;20.8;67.6
72124;BME280;63818;37.134;-8.548;2023-05-23T13:54:59;100728.3;;;20.9;67.2
72124;BME280;63818;37.134;-8.548;2023-05-23T13:59:45;100718.9;;;20.9;66.0
72124;BME280;63818;37.134;-8.548;2023-05-23T14:04:31;100729.9;;;20.9;66.0
72124;BME280;63818;37.134;-8.548;2023-05-23T14:09:20;100731.9;;;21.0;67.0
72124;BME280;63818;37.134;-8.548;2023-05-23T14:14:05;100726.9;;;21.0;66.8
72124;BME280;63818;37.134;-8.548;2023-05-23T14:18:51;100716.3;;;21.0;66.6
72124;BME280;63818;37.134;-8.548;2023-05-23T14:23:39;100722.2;;;21.0;66.9
72124;BME280;63818;37.134;-8.548;2023-05-23T14:28:28;100732.7;;;21.0;67.0
72124;BME280;63818;37.134;-8.548;2023-05-23T14:33:15;100726.9;;;21.1;66.7
72124;BME280;63818;37.134;-8.548;2023-05-23T14:38:04;100721.2;;;21.2;67.1
72124;BME280;63818;37.134;-8.548;2023-05-23T14:42:50;100723.9;;;21.2;68.2
72124;BME280;63818;37.134;-8.548;2023-05-23T14:47:43;100721.6;;;21.2;67.8
72124;BME280;63818;37.134;-8.548;2023-05-23T14:52:28;100723.1;;;21.2;67.4
72124;BME280;63818;37.134;-8.548;2023-05-23T14:57:18;100718.9;;;21.2;67.0
72124;BME280;63818;37.134;-8.548;2023-05-23T15:02:06;100705.6;;;21.2;65.9
72124;BME280;63818;37.134;-8.548;2023-05-23T15:06:53;100696.3;;;21.3;64.9
72124;BME280;63818;37.134;-8.548;2023-05-23T15:11:44;100702.9;;;21.3;64.4
72124;BME280;63818;37.134;-8.548;2023-05-23T15:16:30;100692.4;;;21.4;63.9
72124;BME280;63818;37.134;-8.548;2023-05-23T15:21:20;100699.1;;;21.5;64.0
72124;BME280;63818;37.134;-8.548;2023-05-23T15:26:10;100690.2;;;21.5;64.3
72124;BME280;63818;37.134;-8.548;2023-05-23T15:30:58;100685.9;;;21.6;64.0
72124;BME280;63818;37.134;-8.548;2023-05-23T15:35:44;100680.1;;;21.6;63.7
72124;BME280;63818;37.134;-8.548;2023-05-23T15:40:33;100676.9;;;21.5;63.6
72124;BME280;63818;37.134;-8.548;2023-05-23T15:45:23;100687.5;;;21.6;64.0
72124;BME280;63818;37.134;-8.548;2023-05-23T15:50:14;100707.1;;;21.8;63.6
72124;BME280;63818;37.134;-8.548;2023-05-23T15:55:00;100695.4;;;21.8;64.1
72124;BME280;63818;37.134;-8.548;2023-05-23T15:59:48;100683.3;;;21.9;63.9
72124;BME280;63818;37.134;-8.548;2023-05-23T16:04:42;100674.4;;;21.9;63.7
72124;BME280;63818;37.134;-8.548;2023-05-23T16:09:28;100673.5;;;21.8;64.1
72124;BME280;63818;37.134;-8.548;2023-05-23T16:14:14;100703.5;;;21.7;64.0
72124;BME280;63818;37.134;-8.548;2023-05-23T16:19:03;100726.1;;;21.6;63.4
72124;BME280;63818;37.134;-8.548;2023-05-23T16:23:51;100706.6;;;21.5;63.3
72124;BME280;63818;37.134;-8.548;2023-05-23T16:28:39;100716.7;;;21.5;63.3
72124;BME280;63818;37.134;-8.548;2023-05-23T16:33:27;100724.9;;;21.5;63.8
72124;BME280;63818;37.134;-8.548;2023-05-23T16:38:13;100722.5;;;21.4;63.5
72124;BME280;63818;37.134;-8.548;2023-05-23T16:42:59;100760.0;;;21.4;62.5
72124;BME280;63818;37.134;-8.548;2023-05-23T16:47:45;100784.6;;;21.4;63.3
72124;BME280;63818;37.134;-8.548;2023-05-23T16:52:31;100820.9;;;21.4;64.7
72124;BME280;63818;37.134;-8.548;2023-05-23T16:57:16;100858.3;;;21.3;64.6
72124;BME280;63818;37.134;-8.548;2023-05-23T17:02:05;100885.6;;;21.2;65.1
72124;BME280;63818;37.134;-8.548;2023-05-23T17:06:52;100937.1;;;21.2;67.9
72124;BME280;63818;37.134;-8.548;2023-05-23T17:11:40;100942.0;;;21.1;68.7
72124;BME280;63818;37.134;-8.548;2023-05-23T17:16:28;100925.0;;;20.9;68.4
72124;BME280;63818;37.134;-8.548;2023-05-23T17:21:14;100921.0;;;20.9;69.2
72124;BME280;63818;37.134;-8.548;2023-05-23T17:26:00;100916.3;;;20.8;68.6
72124;BME280;63818;37.134;-8.548;2023-05-23T17:30:46;100899.4;;;20.7;68.3
72124;BME280;63818;37.134;-8.548;2023-05-23T17:35:40;100903.6;;;20.7;68.3
72124;BME280;63818;37.134;-8.548;2023-05-23T17:40:26;100896.9;;;20.6;68.3
72124;BME280;63818;37.134;-8.548;2023-05-23T17:45:15;100880.8;;;20.5;68.4
72124;BME280;63818;37.134;-8.548;2023-05-23T17:50:01;100875.6;;;20.5;67.9
72124;BME280;63818;37.134;-8.548;2023-05-23T17:54:47;100867.1;;;20.5;67.7
72124;BME280;63818;37.134;-8.548;2023-05-23T17:59:33;100871.8;;;20.5;67.9
72124;BME280;63818;37.134;-8.548;2023-05-23T18:04:23;100867.5;;;20.5;68.2
72124;BME280;63818;37.134;-8.548;2023-05-23T18:09:09;100866.3;;;20.5;68.3
72124;BME280;63818;37.134;-8.548;2023-05-23T18:13:55;100862.9;;;20.5;68.9
72124;BME280;63818;37.134;-8.548;2023-05-23T18:18:43;100862.9;;;20.6;69.3
72124;BME280;63818;37.134;-8.548;2023-05-23T18:23:29;100858.6;;;20.5;69.3
72124;BME280;63818;37.134;-8.548;2023-05-23T18:28:15;100859.7;;;20.5;70.0
72124;BME280;63818;37.134;-8.548;2023-05-23T18:33:03;100844.9;;;20.5;69.7
72124;BME280;63818;37.134;-8.548;2023-05-23T18:37:52;100838.2;;;20.5;69.2
72124;BME280;63818;37.134;-8.548;2023-05-23T18:42:38;100838.6;;;20.4;69.2
72124;BME280;63818;37.134;-8.548;2023-05-23T18:47:24;100856.5;;;20.4;70.5
72124;BME280;63818;37.134;-8.548;2023-05-23T18:52:10;100867.4;;;20.4;70.5
72124;BME280;63818;37.134;-8.548;2023-05-23T18:56:56;100855.8;;;20.5;70.6
72124;BME280;63818;37.134;-8.548;2023-05-23T19:01:42;100847.6;;;20.5;70.7
72124;BME280;63818;37.134;-8.548;2023-05-23T19:06:30;100844.4;;;20.4;70.7
72124;BME280;63818;37.134;-8.548;2023-05-23T19:11:16;100853.6;;;20.3;70.3
72124;BME280;63818;37.134;-8.548;2023-05-23T19:16:02;100861.7;;;20.3;70.7
72124;BME280;63818;37.134;-8.548;2023-05-23T19:20:48;100859.5;;;20.3;71.3
72124;BME280;63818;37.134;-8.548;2023-05-23T19:25:34;100869.3;;;20.3;71.2
72124;BME280;63818;37.134;-8.548;2023-05-23T19:30:20;100877.4;;;20.3;71.6
72124;BME280;63818;37.134;-8.548;2023-05-23T19:35:06;100877.7;;;20.2;71.9
72124;BME280;63818;37.134;-8.548;2023-05-23T19:39:52;100871.4;;;20.2;72.0
72124;BME280;63818;37.134;-8.548;2023-05-23T19:44:37;100874.9;;;20.2;72.3
72124;BME280;63818;37.134;-8.548;2023-05-23T19:49:23;100873.3;;;20.2;73.2
72124;BME280;63818;37.134;-8.548;2023-05-23T19:54:10;100860.9;;;20.2;73.2
72124;BME280;63818;37.134;-8.548;2023-05-23T19:58:55;100870.2;;;20.2;73.3
72124;BME280;63818;37.134;-8.548;2023-05-23T20:03:41;100874.2;;;20.2;73.5
72124;BME280;63818;37.134;-8.548;2023-05-23T20:08:27;100878.5;;;20.3;73.6
72124;BME280;63818;37.134;-8.548;2023-05-23T20:13:13;100881.6;;;20.3;73.9
72124;BME280;63818;37.134;-8.548;2023-05-23T20:18:01;100879.3;;;20.3;74.2
72124;BME280;63818;37.134;-8.548;2023-05-23T20:22:47;100873.4;;;20.3;73.8
72124;BME280;63818;37.134;-8.548;2023-05-23T20:27:33;100877.7;;;20.2;74.3
72124;BME280;63818;37.134;-8.548;2023-05-23T20:32:19;100882.0;;;20.3;74.4
72124;BME280;63818;37.134;-8.548;2023-05-23T20:37:05;100891.0;;;20.3;74.9
72124;BME280;63818;37.134;-8.548;2023-05-23T20:41:51;100891.8;;;20.3;74.7
72124;BME280;63818;37.134;-8.548;2023-05-23T20:46:37;100888.7;;;20.3;75.2
72124;BME280;63818;37.134;-8.548;2023-05-23T20:51:25;100893.4;;;20.3;75.5
72124;BME280;63818;37.134;-8.548;2023-05-23T20:56:11;100898.8;;;20.3;75.0
72124;BME280;63818;37.134;-8.548;2023-05-23T21:00:57;100888.3;;;20.3;75.6
72124;BME280;63818;37.134;-8.548;2023-05-23T21:05:43;100894.5;;;20.3;75.9
72124;BME280;63818;37.134;-8.548;2023-05-23T21:10:29;100906.3;;;20.4;76.1
72124;BME280;63818;37.134;-8.548;2023-05-23T21:15:16;100896.2;;;20.4;75.9
72124;BME280;63818;37.134;-8.548;2023-05-23T21:20:02;100898.5;;;20.3;75.8
72124;BME280;63818;37.134;-8.548;2023-05-23T21:24:48;100891.5;;;20.3;76.0
72124;BME280;63818;37.134;-8.548;2023-05-23T21:29:34;100893.0;;;20.3;76.4
72124;BME280;63818;37.134;-8.548;2023-05-23T21:34:20;100900.0;;;20.3;76.2
72124;BME280;63818;37.134;-8.548;2023-05-23T21:39:06;100894.3;;;20.2;76.0
72124;BME280;63818;37.134;-8.548;2023-05-23T21:43:52;100897.4;;;20.1;76.1
72124;BME280;63818;37.134;-8.548;2023-05-23T21:48:37;100900.6;;;20.2;76.3
72124;BME280;63818;37.134;-8.548;2023-05-23T21:53:24;100906.5;;;20.2;76.1
72124;BME280;63818;37.134;-8.548;2023-05-23T21:58:10;100913.9;;;20.2;76.0
72124;BME280;63818;37.134;-8.548;2023-05-23T22:02:56;100916.6;;;20.2;75.6
72124;BME280;63818;37.134;-8.548;2023-05-23T22:07:42;100921.3;;;20.2;75.9
72124;BME280;63818;37.134;-8.548;2023-05-23T22:12:28;100922.0;;;20.2;76.1
72124;BME280;63818;37.134;-8.548;2023-05-23T22:17:14;100920.9;;;20.2;76.2
72124;BME280;63818;37.134;-8.548;2023-05-23T22:22:00;100923.2;;;20.2;76.6
72124;BME280;63818;37.134;-8.548;2023-05-23T22:26:46;100918.6;;;20.2;77.0
72124;BME280;63818;37.134;-8.548;2023-05-23T22:31:32;100919.7;;;20.2;76.8
72124;BME280;63818;37.134;-8.548;2023-05-23T22:36:17;100926.4;;;20.2;77.5
72124;BME280;63818;37.134;-8.548;2023-05-23T22:41:03;100930.6;;;20.2;77.3
72124;BME280;63818;37.134;-8.548;2023-05-23T22:45:49;100940.4;;;20.2;77.4
72124;BME280;63818;37.134;-8.548;2023-05-23T22:50:35;100947.8;;;20.0;76.7
72124;BME280;63818;37.134;-8.548;2023-05-23T22:55:23;100937.2;;;19.9;76.4
72124;BME280;63818;37.134;-8.548;2023-05-23T23:00:10;100945.4;;;19.9;76.2
72124;BME280;63818;37.134;-8.548;2023-05-23T23:04:56;100948.7;;;19.8;76.1
72124;BME280;63818;37.134;-8.548;2023-05-23T23:09:42;100946.4;;;19.8;75.9
72124;BME280;63818;37.134;-8.548;2023-05-23T23:14:28;100937.8;;;19.8;75.9
72124;BME280;63818;37.134;-8.548;2023-05-23T23:19:14;100948.4;;;19.9;75.5
72124;BME280;63818;37.134;-8.548;2023-05-23T23:23:59;100945.6;;;19.9;75.5
72124;BME280;63818;37.134;-8.548;2023-05-23T23:28:45;100934.4;;;19.9;75.3
72124;BME280;63818;37.134;-8.548;2023-05-23T23:33:31;100935.6;;;19.9;75.5
72124;BME280;63818;37.134;-8.548;2023-05-23T23:38:18;100950.0;;;19.9;75.6
72124;BME280;63818;37.134;-8.548;2023-05-23T23:43:04;100948.9;;;19.9;75.1
72124;BME280;63818;37.134;-8.548;2023-05-23T23:47:50;100947.3;;;19.9;75.0
72124;BME280;63818;37.134;-8.548;2023-05-23T23:52:37;100947.7;;;19.9;75.2
72124;BME280;63818;37.134;-8.548;2023-05-23T23:57:23;100940.7;;;19.9;75.2
